createdAt,value
2022-12-22T00:01:07.414Z,12.32
2022-12-22T00:03:53.111Z,13.05
2022-12-22T00:06:40.068Z,13.40
2022-12-22T00:09:25.892Z,12.48
2022-12-22T00:12:11.810Z,12.80
2022-12-22T00:14:57.863Z,13.32
2022-12-22T00:17:46.996Z,13.13
2022-12-22T00:20:35.802Z,13.23
2022-12-22T00:23:23.983Z,13.40
2022-12-22T00:26:09.700Z,13.25
2022-12-22T00:28:55.832Z,13.55
2022-12-22T00:31:42.817Z,12.50
2022-12-22T00:34:33.177Z,13.98
2022-12-22T00:37:19.047Z,13.25
2022-12-22T00:40:06.478Z,14.10
2022-12-22T00:42:52.460Z,14.18
2022-12-22T00:45:38.976Z,11.45
2022-12-22T00:48:28.221Z,12.80
2022-12-22T00:51:14.391Z,12.23
2022-12-22T00:53:59.884Z,11.63
2022-12-22T00:56:47.545Z,10.68
2022-12-22T00:59:33.274Z,9.75
2022-12-22T01:02:19.382Z,10.50
2022-12-22T01:05:09.003Z,10.85
2022-12-22T01:07:55.987Z,11.00
2022-12-22T01:10:43.664Z,10.90
2022-12-22T01:13:32.029Z,11.32
2022-12-22T01:16:18.702Z,12.55
2022-12-22T01:19:04.751Z,11.13
2022-12-22T01:21:50.832Z,10.90
2022-12-22T01:24:37.310Z,11.82
2022-12-22T01:27:23.759Z,12.57
2022-12-22T01:30:10.793Z,12.35
2022-12-22T01:32:56.678Z,12.23
2022-12-22T01:35:45.005Z,11.75
2022-12-22T01:38:30.804Z,11.50
2022-12-22T01:41:18.524Z,13.50
2022-12-22T01:44:04.355Z,12.18
2022-12-22T01:46:54.371Z,13.38
2022-12-22T01:49:44.725Z,13.75
2022-12-22T01:52:32.706Z,32.30
2022-12-22T01:55:22.242Z,26.27
2022-12-22T01:58:08.008Z,19.05
2022-12-22T02:00:53.580Z,25.70
2022-12-22T02:03:41.883Z,19.55
2022-12-22T02:06:45.319Z,16.60
2022-12-22T02:09:46.123Z,15.27
2022-12-22T02:12:38.585Z,13.80
2022-12-22T02:15:32.093Z,15.48
2022-12-22T02:18:26.396Z,13.63
2022-12-22T02:21:19.250Z,14.32
2022-12-22T02:24:30.859Z,13.65
2022-12-22T02:27:20.488Z,13.90
2022-12-22T02:30:10.437Z,13.93
2022-12-22T02:33:03.594Z,13.95
2022-12-22T02:36:02.917Z,14.45
2022-12-22T02:38:59.660Z,13.77
2022-12-22T02:41:54.656Z,13.25
2022-12-22T02:44:50.650Z,13.73
2022-12-22T02:47:42.119Z,14.18
2022-12-22T02:50:36.208Z,13.93
2022-12-22T02:53:24.493Z,14.98
2022-12-22T02:56:17.975Z,14.93
2022-12-22T02:59:04.084Z,15.63
2022-12-22T03:01:52.080Z,15.20
2022-12-22T03:04:38.055Z,16.58
2022-12-22T03:07:24.184Z,18.95
2022-12-22T03:10:09.764Z,17.85
2022-12-22T03:12:55.970Z,16.05
2022-12-22T03:15:41.554Z,16.55
2022-12-22T03:18:30.711Z,15.88
2022-12-22T03:21:17.493Z,14.32
2022-12-22T03:24:03.405Z,13.80
2022-12-22T03:26:33.571Z,12.80
2022-12-22T03:29:01.905Z,13.27
2022-12-22T03:31:30.287Z,13.35
2022-12-22T03:34:00.114Z,13.73
2022-12-22T03:36:28.525Z,13.63
2022-12-22T03:38:56.845Z,13.20
2022-12-22T03:41:42.765Z,12.77
2022-12-22T03:44:28.939Z,13.45
2022-12-22T03:46:57.552Z,13.40
2022-12-22T03:49:27.385Z,14.48
2022-12-22T03:51:55.894Z,12.80
2022-12-22T03:54:28.233Z,12.18
2022-12-22T03:56:56.578Z,12.18
2022-12-22T03:59:24.957Z,12.98
2022-12-22T04:01:55.293Z,13.60
2022-12-22T04:04:25.425Z,13.07
2022-12-22T04:06:55.658Z,14.00
2022-12-22T04:09:24.999Z,13.55
2022-12-22T04:12:10.809Z,14.25
2022-12-22T04:14:39.341Z,10.88
2022-12-22T04:17:09.871Z,10.57
2022-12-22T04:19:38.182Z,13.60
2022-12-22T04:22:07.915Z,12.52
2022-12-22T04:24:36.252Z,11.93
2022-12-22T04:27:05.235Z,13.30
2022-12-22T04:29:33.528Z,12.65
2022-12-22T04:32:03.195Z,11.95
2022-12-22T04:34:31.570Z,11.48
2022-12-22T04:37:08.397Z,11.82
2022-12-22T04:39:44.519Z,11.80
2022-12-22T04:42:12.863Z,11.80
2022-12-22T04:44:47.339Z,12.18
2022-12-22T04:47:15.632Z,10.50
2022-12-22T04:49:43.983Z,10.43
2022-12-22T04:52:12.352Z,10.80
2022-12-22T04:54:40.645Z,11.23
2022-12-22T04:57:10.387Z,10.68
2022-12-22T04:59:38.694Z,12.70
2022-12-22T05:02:07.118Z,11.13
2022-12-22T05:04:35.513Z,11.70
2022-12-22T05:07:03.839Z,11.95
2022-12-22T05:09:32.233Z,9.80
2022-12-22T05:12:00.564Z,10.02
2022-12-22T05:14:30.447Z,10.40
2022-12-22T05:16:58.878Z,10.27
2022-12-22T05:19:30.690Z,10.60
2022-12-22T05:21:59.327Z,10.65
2022-12-22T05:24:27.736Z,8.80
2022-12-22T05:26:56.100Z,8.73
2022-12-22T05:29:24.552Z,10.35
2022-12-22T05:31:54.265Z,8.88
2022-12-22T05:34:22.513Z,10.68
2022-12-22T05:36:50.838Z,10.00
2022-12-22T05:39:19.361Z,11.45
2022-12-22T05:41:47.962Z,9.63
2022-12-22T05:44:16.330Z,9.90
2022-12-22T05:46:44.811Z,10.05
2022-12-22T05:49:14.549Z,11.55
2022-12-22T05:51:42.995Z,10.10
2022-12-22T05:54:11.535Z,10.25
2022-12-22T05:56:39.823Z,9.77
2022-12-22T05:59:08.088Z,9.60
2022-12-22T06:01:36.395Z,10.27
2022-12-22T06:04:05.158Z,10.68
2022-12-22T06:06:34.949Z,9.52
2022-12-22T06:09:03.308Z,10.48
2022-12-22T06:11:31.525Z,11.13
2022-12-22T06:13:59.999Z,11.82
2022-12-22T06:16:28.395Z,10.85
2022-12-22T06:18:56.752Z,12.02
2022-12-22T06:21:25.040Z,12.45
2022-12-22T06:23:55.281Z,12.95
2022-12-22T06:26:23.672Z,13.50
2022-12-22T06:28:52.022Z,13.82
2022-12-22T06:31:20.319Z,12.40
2022-12-22T06:33:48.701Z,12.23
2022-12-22T06:36:17.265Z,11.13
2022-12-22T06:38:45.587Z,10.98
2022-12-22T06:41:15.293Z,9.95
2022-12-22T06:43:42.525Z,11.13
2022-12-22T06:46:11.016Z,11.27
2022-12-22T06:48:39.431Z,11.57
2022-12-22T06:51:07.974Z,10.73
2022-12-22T06:53:36.254Z,9.98
2022-12-22T06:56:04.585Z,10.55
2022-12-22T06:58:34.455Z,10.52
2022-12-22T07:01:08.811Z,10.35
2022-12-22T07:03:37.227Z,10.50
2022-12-22T07:06:06.017Z,10.57
2022-12-22T07:08:34.387Z,10.77
2022-12-22T07:11:02.632Z,10.13
2022-12-22T07:13:35.122Z,10.48
2022-12-22T07:16:04.623Z,9.93
2022-12-22T07:18:34.345Z,11.60
2022-12-22T07:21:07.924Z,11.40
2022-12-22T07:23:36.558Z,9.98
2022-12-22T07:26:06.776Z,11.10
2022-12-22T07:28:37.291Z,9.23
2022-12-22T07:31:06.576Z,9.98
2022-12-22T07:33:35.586Z,10.10
2022-12-22T07:36:06.673Z,9.75
2022-12-22T07:38:36.797Z,15.82
2022-12-22T07:41:25.727Z,15.02
2022-12-22T07:43:55.813Z,11.93
2022-12-22T07:46:24.699Z,12.13
2022-12-22T07:49:10.552Z,10.95
2022-12-22T07:51:40.906Z,10.52
2022-12-22T07:54:13.938Z,11.43
2022-12-22T07:56:42.793Z,11.70
2022-12-22T07:59:13.427Z,11.88
2022-12-22T08:01:42.688Z,13.05
2022-12-22T08:04:11.559Z,13.15
2022-12-22T08:06:40.057Z,12.95
2022-12-22T08:09:09.401Z,13.57
2022-12-22T08:11:37.732Z,12.38
2022-12-22T08:14:06.237Z,12.80
2022-12-22T08:16:36.172Z,11.50
2022-12-22T08:19:04.547Z,9.98
2022-12-22T08:21:32.819Z,11.80
2022-12-22T08:24:01.165Z,11.77
2022-12-22T08:26:35.896Z,11.65
2022-12-22T08:29:08.683Z,10.93
2022-12-22T08:31:41.284Z,9.95
2022-12-22T08:34:11.844Z,11.82
2022-12-22T08:36:43.227Z,11.00
2022-12-22T08:39:12.073Z,10.30
2022-12-22T08:41:53.612Z,9.70
2022-12-22T08:44:24.127Z,11.30
2022-12-22T08:46:55.646Z,11.20
2022-12-22T08:49:24.351Z,11.10
2022-12-22T08:51:52.741Z,10.80
2022-12-22T08:54:24.617Z,11.10
2022-12-22T08:56:54.169Z,10.75
2022-12-22T08:59:22.483Z,12.13
2022-12-22T09:01:51.429Z,11.10
2022-12-22T09:04:22.832Z,10.38
2022-12-22T09:06:53.507Z,10.27
2022-12-22T09:09:22.072Z,10.38
2022-12-22T09:11:50.937Z,9.80
2022-12-22T09:14:19.364Z,8.85
2022-12-22T09:16:47.820Z,12.23
2022-12-22T09:19:16.138Z,10.48
2022-12-22T09:21:46.235Z,10.07
2022-12-22T09:24:14.929Z,10.35
2022-12-22T09:26:43.429Z,10.95
2022-12-22T09:29:12.239Z,9.77
2022-12-22T09:31:41.822Z,9.38
2022-12-22T09:34:16.893Z,9.20
2022-12-22T09:36:48.491Z,10.10
2022-12-22T09:39:17.196Z,9.70
2022-12-22T09:41:49.519Z,9.35
2022-12-22T09:44:26.556Z,10.60
2022-12-22T09:46:57.030Z,9.60
2022-12-22T09:49:28.401Z,9.30
2022-12-22T09:52:01.064Z,9.63
2022-12-22T09:54:31.213Z,9.40
2022-12-22T09:57:00.165Z,9.32
2022-12-22T09:59:31.395Z,9.98
2022-12-22T10:02:16.862Z,10.02
2022-12-22T10:05:05.242Z,9.95
2022-12-22T10:07:36.999Z,10.10
2022-12-22T10:10:10.379Z,9.52
2022-12-22T10:12:38.783Z,9.40
2022-12-22T10:15:16.774Z,10.38
2022-12-22T10:17:51.080Z,10.55
2022-12-22T10:20:26.617Z,9.20
2022-12-22T10:23:02.310Z,10.15
2022-12-22T10:26:08.840Z,9.70
2022-12-22T10:28:26.448Z,10.35
2022-12-22T10:31:14.587Z,10.95
2022-12-22T10:33:47.856Z,10.05
2022-12-22T10:36:20.719Z,10.85
2022-12-22T10:39:03.599Z,10.90
2022-12-22T10:41:36.986Z,11.50
2022-12-22T10:44:09.843Z,12.00
2022-12-22T10:46:42.300Z,11.25
2022-12-22T10:49:18.173Z,11.63
2022-12-22T10:51:51.040Z,11.40
2022-12-22T10:54:33.448Z,12.13
2022-12-22T10:57:04.852Z,11.45
2022-12-22T10:59:37.072Z,12.20
2022-12-22T11:02:26.150Z,12.20
2022-12-22T11:04:55.871Z,10.93
2022-12-22T11:07:25.607Z,11.25
2022-12-22T11:09:55.473Z,12.00
2022-12-22T11:12:32.709Z,11.15
2022-12-22T11:15:05.352Z,11.07
2022-12-22T11:17:40.465Z,11.43
2022-12-22T11:20:32.650Z,11.73
2022-12-22T11:23:05.811Z,11.50
2022-12-22T11:25:46.291Z,10.25
2022-12-22T11:28:38.152Z,18.05
2022-12-22T11:31:24.437Z,12.18
2022-12-22T11:34:05.695Z,10.25
2022-12-22T11:36:47.740Z,10.52
2022-12-22T11:39:17.729Z,11.00
2022-12-22T11:42:02.276Z,11.20
2022-12-22T11:44:42.483Z,11.73
2022-12-22T11:47:27.430Z,10.20
2022-12-22T11:50:57.437Z,11.93
2022-12-22T11:53:08.030Z,12.10
2022-12-22T11:55:41.683Z,10.63
2022-12-22T11:58:32.395Z,12.60
2022-12-22T12:01:17.523Z,10.60
2022-12-22T12:04:12.607Z,12.10
2022-12-22T12:06:57.189Z,12.23
2022-12-22T12:09:37.278Z,10.88
2022-12-22T12:12:14.175Z,14.10
2022-12-22T12:14:53.297Z,10.07
2022-12-22T12:17:31.233Z,10.57
2022-12-22T12:20:19.080Z,11.05
2022-12-22T12:22:56.357Z,10.73
2022-12-22T12:25:30.651Z,10.55
2022-12-22T12:28:13.318Z,10.60
2022-12-22T12:30:51.733Z,9.55
2022-12-22T12:33:26.793Z,9.02
2022-12-22T12:36:03.754Z,9.45
2022-12-22T12:39:07.647Z,9.68
2022-12-22T12:41:37.790Z,9.48
2022-12-22T12:44:07.600Z,9.23
2022-12-22T12:46:56.090Z,8.40
2022-12-22T12:50:10.505Z,9.50
2022-12-22T12:53:15.137Z,9.27
2022-12-22T12:55:58.440Z,8.00
2022-12-22T12:58:50.154Z,10.18
2022-12-22T13:01:56.158Z,11.85
2022-12-22T13:05:16.368Z,8.50
2022-12-22T13:08:25.181Z,9.80
2022-12-22T13:11:52.608Z,9.75
2022-12-22T13:14:12.037Z,10.38
2022-12-22T13:16:41.277Z,9.60
2022-12-22T13:19:21.805Z,10.15
2022-12-22T13:21:53.471Z,9.88
2022-12-22T13:24:36.206Z,13.32
2022-12-22T13:27:12.025Z,9.65
2022-12-22T13:29:46.690Z,15.63
2022-12-22T13:32:25.163Z,27.40
2022-12-22T13:37:55.356Z,27.85
2022-12-22T13:40:27.636Z,17.25
2022-12-22T13:42:59.015Z,69.70
2022-12-22T13:45:35.066Z,35.67
2022-12-22T13:48:09.635Z,28.48
2022-12-22T13:50:40.960Z,25.50
2022-12-22T13:53:22.861Z,20.90
2022-12-22T13:56:02.942Z,12.65
2022-12-22T13:58:35.247Z,11.60
2022-12-22T14:01:14.836Z,11.70
2022-12-22T14:04:04.901Z,13.80
2022-12-22T14:06:35.779Z,13.02
2022-12-22T14:09:21.395Z,33.30
2022-12-22T14:11:53.871Z,23.30
2022-12-22T14:14:28.320Z,15.05
2022-12-22T14:16:58.890Z,8.93
2022-12-22T14:19:28.870Z,9.82
2022-12-22T14:22:04.649Z,10.52
2022-12-22T14:24:40.325Z,8.32
2022-12-22T14:27:19.585Z,10.02
2022-12-22T14:29:48.308Z,10.90
2022-12-22T14:32:39.337Z,8.35
2022-12-22T14:35:23.686Z,9.27
2022-12-22T14:37:54.458Z,10.00
2022-12-22T14:40:34.556Z,10.10
2022-12-22T14:43:07.283Z,17.60
2022-12-22T14:45:35.692Z,11.73
2022-12-22T14:48:08.771Z,17.30
2022-12-22T14:50:40.097Z,20.05
2022-12-22T14:53:08.607Z,26.88
2022-12-22T14:55:41.024Z,22.85
2022-12-22T14:58:15.070Z,34.00
2022-12-22T15:00:44.949Z,33.47
2022-12-22T15:03:32.309Z,26.95
2022-12-22T15:06:24.216Z,23.40
2022-12-22T15:09:47.174Z,35.35
2022-12-22T15:12:14.287Z,46.72
2022-12-22T15:14:47.712Z,36.40
2022-12-22T15:17:25.673Z,34.00
2022-12-22T15:19:59.289Z,32.65
2022-12-22T15:22:27.644Z,48.63
2022-12-22T15:24:55.989Z,33.90
2022-12-22T15:27:24.269Z,25.92
2022-12-22T15:29:54.469Z,27.95
2022-12-22T15:32:22.715Z,23.25
2022-12-22T15:34:51.000Z,66.82
2022-12-22T15:37:19.281Z,20.25
2022-12-22T15:39:53.750Z,69.18
2022-12-22T15:42:22.212Z,17.40
2022-12-22T15:44:50.454Z,23.85
2022-12-22T15:47:21.308Z,72.97
2022-12-22T15:49:49.536Z,19.85
2022-12-22T15:52:17.783Z,14.93
2022-12-22T15:54:46.019Z,26.35
2022-12-22T15:57:15.255Z,20.73
2022-12-22T15:59:43.510Z,30.13
2022-12-22T16:02:13.286Z,21.63
2022-12-22T16:04:46.215Z,23.13
2022-12-22T16:07:14.520Z,21.27
2022-12-22T16:09:44.935Z,17.30
2022-12-22T16:12:21.419Z,25.50
2022-12-22T16:14:54.097Z,13.05
2022-12-22T16:17:23.905Z,18.67
2022-12-22T16:19:56.810Z,13.25
2022-12-22T16:22:32.486Z,14.77
2022-12-22T16:25:03.469Z,14.50
2022-12-22T16:27:32.321Z,12.88
2022-12-22T16:30:00.585Z,14.25
2022-12-22T16:32:31.413Z,25.27
2022-12-22T16:35:08.049Z,32.40
2022-12-22T16:37:36.295Z,17.77
2022-12-22T16:40:05.215Z,12.80
2022-12-22T16:45:23.075Z,14.20
2022-12-22T16:47:53.956Z,17.83
2022-12-22T16:50:33.377Z,17.27
2022-12-22T16:53:02.171Z,13.38
2022-12-22T16:55:30.592Z,10.90
2022-12-22T16:57:58.980Z,16.70
2022-12-22T17:00:29.365Z,28.90
2022-12-22T17:03:01.078Z,10.35
2022-12-22T17:05:43.998Z,29.42
2022-12-22T17:08:21.769Z,16.33
2022-12-22T17:10:50.477Z,15.35
2022-12-22T17:13:19.419Z,12.48
2022-12-22T17:15:47.734Z,10.68
2022-12-22T17:18:17.864Z,20.10
2022-12-22T17:20:53.408Z,20.65
2022-12-22T17:23:31.620Z,43.50
2022-12-22T17:26:01.605Z,30.27
2022-12-22T17:28:30.133Z,31.70
2022-12-22T17:30:58.533Z,80.65
2022-12-22T17:33:26.941Z,38.42
2022-12-22T17:35:58.509Z,40.92
2022-12-22T17:38:28.941Z,58.42
2022-12-22T17:40:57.726Z,29.45
2022-12-22T17:43:26.016Z,13.55
2022-12-22T17:45:54.352Z,18.30
2022-12-22T17:48:22.609Z,27.00
2022-12-22T17:50:50.906Z,8.85
2022-12-22T17:53:21.986Z,9.80
2022-12-22T17:56:09.732Z,10.85
2022-12-22T17:58:43.346Z,10.43
2022-12-22T18:01:21.695Z,8.75
2022-12-22T18:03:56.912Z,8.68
2022-12-22T18:06:28.453Z,6.68
2022-12-22T18:08:59.095Z,7.53
2022-12-22T18:11:28.337Z,7.10
2022-12-22T18:14:00.160Z,8.70
2022-12-22T18:16:29.431Z,10.18
2022-12-22T18:19:00.953Z,8.80
2022-12-22T18:21:29.978Z,6.53
2022-12-22T18:23:59.791Z,6.90
2022-12-22T18:26:29.804Z,7.25
2022-12-22T18:28:58.602Z,7.00
2022-12-22T18:31:27.180Z,6.95
2022-12-22T18:33:58.825Z,8.45
2022-12-22T18:36:37.987Z,6.93
2022-12-22T18:39:17.331Z,6.80
2022-12-22T18:41:46.560Z,7.82
2022-12-22T18:44:17.947Z,7.25
2022-12-22T18:46:49.939Z,9.35
2022-12-22T18:49:18.439Z,10.27
2022-12-22T18:51:47.513Z,12.52
2022-12-22T18:54:29.482Z,14.68
2022-12-22T18:56:58.334Z,9.75
2022-12-22T18:59:29.086Z,10.30
2022-12-22T19:02:03.407Z,11.70
2022-12-22T19:04:32.203Z,10.35
2022-12-22T19:07:06.111Z,10.23
2022-12-22T19:09:36.006Z,10.05
2022-12-22T19:12:15.329Z,8.52
2022-12-22T19:14:51.163Z,9.82
2022-12-22T19:17:22.483Z,10.73
2022-12-22T19:19:51.078Z,11.57
2022-12-22T19:22:19.674Z,14.35
2022-12-22T19:24:57.407Z,11.43
2022-12-22T19:27:27.547Z,12.32
2022-12-22T19:30:04.624Z,12.20
2022-12-22T19:32:39.594Z,12.88
2022-12-22T19:35:16.160Z,12.07
2022-12-22T19:37:44.844Z,12.18
2022-12-22T19:40:15.929Z,11.77
2022-12-22T19:42:46.975Z,12.68
2022-12-22T19:45:23.043Z,14.50
2022-12-22T19:47:51.789Z,14.50
2022-12-22T19:50:24.894Z,11.07
2022-12-22T19:52:53.973Z,11.90
2022-12-22T19:55:26.796Z,12.45
2022-12-22T19:57:58.844Z,11.70
2022-12-22T20:00:29.029Z,11.20
2022-12-22T20:03:01.225Z,13.07
2022-12-22T20:05:31.626Z,12.35
2022-12-22T20:08:04.343Z,14.48
2022-12-22T20:10:35.986Z,12.15
2022-12-22T20:13:14.738Z,14.05
2022-12-22T20:15:47.077Z,14.57
2022-12-22T20:18:21.810Z,14.60
2022-12-22T20:21:01.303Z,11.95
2022-12-22T20:23:35.183Z,12.38
2022-12-22T20:26:07.921Z,14.15
2022-12-22T20:28:38.124Z,14.00
2022-12-22T20:31:08.151Z,17.17
2022-12-22T20:33:39.611Z,18.05
2022-12-22T20:36:17.665Z,17.70
2022-12-22T20:38:46.636Z,21.00
2022-12-22T20:41:16.624Z,27.70
2022-12-22T20:43:45.140Z,30.23
2022-12-22T20:46:16.570Z,22.58
2022-12-22T20:48:48.028Z,28.85
2022-12-22T20:51:18.962Z,27.35
2022-12-22T20:53:48.431Z,29.40
2022-12-22T20:56:25.520Z,22.10
2022-12-22T20:58:54.112Z,15.15
2022-12-22T21:01:23.538Z,14.73
2022-12-22T21:03:52.367Z,14.55
2022-12-22T21:06:26.416Z,14.93
2022-12-22T21:08:56.708Z,18.63
2022-12-22T21:11:27.252Z,13.88
2022-12-22T21:13:56.226Z,21.30
2022-12-22T21:16:27.212Z,29.55
2022-12-22T21:18:56.214Z,20.95
2022-12-22T21:21:24.653Z,23.95
2022-12-22T21:23:53.010Z,21.85
2022-12-22T21:26:25.755Z,23.33
2022-12-22T21:28:55.784Z,36.80
2022-12-22T21:31:24.069Z,44.92
2022-12-22T21:33:55.328Z,33.63
2022-12-22T21:36:29.375Z,22.20
2022-12-22T21:39:00.464Z,27.08
2022-12-22T21:41:42.607Z,41.20
2022-12-22T21:44:13.442Z,32.28
2022-12-22T21:46:43.084Z,27.35
2022-12-22T21:49:19.835Z,22.80
2022-12-22T21:51:48.703Z,26.55
2022-12-22T21:54:21.847Z,28.40
2022-12-22T21:56:50.720Z,28.05
2022-12-22T21:59:20.705Z,29.58
2022-12-22T22:01:53.500Z,38.35
2022-12-22T22:04:22.365Z,34.28
2022-12-22T22:06:50.793Z,24.98
2022-12-22T22:09:19.078Z,43.03
2022-12-22T22:12:04.789Z,44.55
2022-12-22T22:14:37.600Z,26.13
2022-12-22T22:17:06.160Z,25.63
2022-12-22T22:19:34.825Z,23.17
2022-12-22T22:22:04.433Z,26.10
2022-12-22T22:24:33.071Z,23.27
2022-12-22T22:27:01.557Z,26.42
2022-12-22T22:29:29.979Z,19.00
2022-12-22T22:32:14.729Z,24.20
2022-12-22T22:40:51.237Z,17.75
2022-12-22T22:43:20.071Z,24.40
2022-12-22T22:52:19.975Z,19.13
2022-12-22T22:57:50.320Z,27.42
2022-12-22T23:00:40.482Z,18.00
2022-12-22T23:03:09.399Z,16.30
2022-12-22T23:05:38.191Z,31.50
2022-12-22T23:11:18.857Z,14.07
2022-12-22T23:13:47.249Z,22.92
2022-12-22T23:16:35.731Z,16.20
2022-12-22T23:19:23.097Z,17.17
2022-12-22T23:21:56.752Z,21.35
2022-12-22T23:27:42.552Z,28.13
2022-12-22T23:30:18.681Z,21.70
2022-12-22T23:32:47.306Z,23.25
2022-12-22T23:37:58.660Z,18.42
2022-12-22T23:41:32.393Z,19.48
2022-12-22T23:48:34.841Z,19.13
2022-12-22T23:59:59.116Z,22.05
